Time;durP1;ratioP1;P1;durP2;ratioP2;P2;SDS_P1;SDS_P2;PMS_P1;PMS_P2;Temp;Humidity;BMP_temperature;BMP_pressure;BME280_temperature;BME280_humidity;BME280_pressure;Samples;Min_cycle;Max_cycle;Signal;HPM_P1;HPM_P2
2023/04/26 00:00:21;;;;;;;;;;;7.10;56.00;;;;;;5069982;28;19961;-61
2023/04/26 00:02:47;;;;;;;;;;;7.00;55.90;;;;;;5051198;28;19944;-60
2023/04/26 00:05:13;;;;;;;;;;;7.00;56.00;;;;;;5047765;28;19963;-60
2023/04/26 00:07:39;;;;;;;;;;;7.00;56.10;;;;;;5049252;28;19952;-60
2023/04/26 00:10:05;;;;;;;;;;;6.90;56.20;;;;;;5049422;28;19947;-61
2023/04/26 00:12:31;;;;;;;;;;;7.00;56.40;;;;;;5049277;28;19913;-61
2023/04/26 00:14:56;;;;;;;;;;;7.00;56.30;;;;;;5049438;28;20421;-59
2023/04/26 00:17:22;;;;;;;;;;;7.00;56.30;;;;;;5047932;28;20463;-60
2023/04/26 00:19:48;;;;;;;;;;;7.00;56.40;;;;;;5049342;28;20386;-59
2023/04/26 00:22:14;;;;;;;;;;;7.00;56.60;;;;;;5048813;28;19913;-60
2023/04/26 00:24:40;;;;;;;;;;;7.00;56.70;;;;;;5049153;28;20461;-60
2023/04/26 00:27:08;;;;;;;;;;;7.00;56.80;;;;;;5049064;28;19939;-59
2023/04/26 00:29:34;;;;;;;;;;;7.00;56.80;;;;;;5048981;28;19944;-60
2023/04/26 00:32:00;;;;;;;;;;;7.00;56.70;;;;;;5048975;28;19949;-59
2023/04/26 00:34:30;;;;;;;;;;;7.00;56.70;;;;;;5048495;28;19962;-60
2023/04/26 00:36:56;;;;;;;;;;;7.00;56.60;;;;;;5049178;28;20491;-59
2023/04/26 00:39:21;;;;;;;;;;;7.00;56.40;;;;;;5048665;28;20019;-60
2023/04/26 00:41:47;;;;;;;;;;;7.00;56.20;;;;;;5048768;28;20004;-60
2023/04/26 00:44:12;;;;;;;;;;;7.00;56.00;;;;;;5048732;28;20015;-60
2023/04/26 00:46:38;;;;;;;;;;;6.90;56.00;;;;;;5048513;28;19928;-61
2023/04/26 00:49:03;;;;;;;;;;;6.90;55.90;;;;;;5048466;28;19944;-61
2023/04/26 00:51:30;;;;;;;;;;;6.90;55.80;;;;;;5048545;28;19919;-60
2023/04/26 00:53:56;;;;;;;;;;;6.80;55.90;;;;;;5048522;28;19952;-60
2023/04/26 00:56:23;;;;;;;;;;;6.80;55.90;;;;;;5048248;28;20423;-60
2023/04/26 00:58:49;;;;;;;;;;;6.80;55.80;;;;;;5048525;28;20003;-59
2023/04/26 01:01:14;;;;;;;;;;;6.70;55.80;;;;;;5052400;28;20529;-59
2023/04/26 01:03:40;;;;;;;;;;;6.70;55.90;;;;;;5068293;28;19915;-59
2023/04/26 01:06:05;;;;;;;;;;;6.70;55.80;;;;;;5068355;28;19946;-60
2023/04/26 01:08:31;;;;;;;;;;;6.70;55.90;;;;;;5068415;28;20322;-59
2023/04/26 01:10:57;;;;;;;;;;;6.70;56.30;;;;;;5068392;28;19916;-59
2023/04/26 01:13:23;;;;;;;;;;;6.70;56.40;;;;;;5067978;28;19913;-60
2023/04/26 01:15:49;;;;;;;;;;;6.70;56.40;;;;;;5068205;28;19912;-60
2023/04/26 01:18:14;;;;;;;;;;;6.70;56.30;;;;;;5067730;28;19958;-59
2023/04/26 01:20:41;;;;;;;;;;;6.70;56.40;;;;;;5067913;28;19961;-60
2023/04/26 01:23:07;;;;;;;;;;;6.70;56.50;;;;;;5067965;28;20000;-59
2023/04/26 01:25:33;;;;;;;;;;;6.70;56.40;;;;;;5068068;28;19916;-59
2023/04/26 01:27:59;;;;;;;;;;;6.60;56.20;;;;;;5067995;28;19969;-59
2023/04/26 01:30:24;;;;;;;;;;;6.60;55.90;;;;;;5067829;28;20352;-59
2023/04/26 01:32:50;;;;;;;;;;;6.50;55.80;;;;;;5067624;28;19965;-60
2023/04/26 01:35:16;;;;;;;;;;;6.60;55.90;;;;;;5068213;28;20283;-59
2023/04/26 01:37:42;;;;;;;;;;;6.50;55.90;;;;;;5067508;28;20013;-59
2023/04/26 01:40:08;;;;;;;;;;;6.50;55.90;;;;;;5066579;28;19960;-59
2023/04/26 01:42:34;;;;;;;;;;;6.50;56.00;;;;;;5067876;28;20348;-60
2023/04/26 01:44:59;;;;;;;;;;;6.50;56.20;;;;;;5066460;28;19920;-60
2023/04/26 01:47:25;;;;;;;;;;;6.50;56.40;;;;;;5067465;28;19917;-60
2023/04/26 01:49:50;;;;;;;;;;;6.40;56.30;;;;;;5067290;28;19947;-60
2023/04/26 01:52:16;;;;;;;;;;;6.40;56.40;;;;;;5067367;28;19920;-60
2023/04/26 01:54:41;;;;;;;;;;;6.40;56.60;;;;;;5067169;28;19924;-59
2023/04/26 01:57:07;;;;;;;;;;;6.40;56.60;;;;;;5067054;28;19986;-60
2023/04/26 01:59:32;;;;;;;;;;;6.40;56.50;;;;;;5067111;28;19967;-60
2023/04/26 02:01:58;;;;;;;;;;;6.40;56.50;;;;;;5056557;28;19947;-59
2023/04/26 02:04:24;;;;;;;;;;;6.40;56.50;;;;;;5046916;28;19963;-59
2023/04/26 02:06:49;;;;;;;;;;;6.40;56.50;;;;;;5046896;28;19917;-61
2023/04/26 02:09:14;;;;;;;;;;;6.40;56.40;;;;;;5046832;28;19913;-60
2023/04/26 02:11:40;;;;;;;;;;;6.40;56.20;;;;;;5047508;28;20334;-60
2023/04/26 02:14:05;;;;;;;;;;;6.30;56.10;;;;;;5046969;28;20368;-60
2023/04/26 02:16:31;;;;;;;;;;;6.30;55.90;;;;;;5046962;28;19917;-60
2023/04/26 02:18:58;;;;;;;;;;;6.30;56.00;;;;;;5047158;28;19958;-60
2023/04/26 02:21:23;;;;;;;;;;;6.30;56.00;;;;;;5046540;28;19917;-61
2023/04/26 02:23:49;;;;;;;;;;;6.20;56.00;;;;;;5046728;28;20325;-60
2023/04/26 02:26:14;;;;;;;;;;;6.20;55.90;;;;;;5047439;28;19920;-60
2023/04/26 02:28:40;;;;;;;;;;;6.20;55.90;;;;;;5046929;28;19916;-60
2023/04/26 02:31:06;;;;;;;;;;;6.10;55.90;;;;;;5046553;28;19967;-60
2023/04/26 02:33:31;;;;;;;;;;;6.10;55.90;;;;;;5046696;28;20377;-60
2023/04/26 02:35:57;;;;;;;;;;;6.10;56.00;;;;;;5047077;28;20525;-59
2023/04/26 02:38:25;;;;;;;;;;;6.10;56.00;;;;;;5046754;28;19913;-60
2023/04/26 02:40:56;;;;;;;;;;;6.00;55.90;;;;;;5047119;28;19912;-60
2023/04/26 02:43:22;;;;;;;;;;;6.00;55.90;;;;;;5046780;28;19913;-60
2023/04/26 02:45:47;;;;;;;;;;;6.00;55.90;;;;;;5047071;28;20319;-60
2023/04/26 02:48:12;;;;;;;;;;;6.00;56.10;;;;;;5046559;28;19964;-60
2023/04/26 02:50:38;;;;;;;;;;;6.00;56.30;;;;;;5047017;28;19917;-60
2023/04/26 02:53:03;;;;;;;;;;;6.00;56.30;;;;;;5047131;28;19917;-60
2023/04/26 02:55:29;;;;;;;;;;;6.00;56.30;;;;;;5046962;28;19956;-60
2023/04/26 02:57:55;;;;;;;;;;;6.00;56.30;;;;;;5050026;28;20000;-60
2023/04/26 03:00:21;;;;;;;;;;;6.00;56.40;;;;;;5050761;28;20365;-60
2023/04/26 03:02:47;;;;;;;;;;;6.00;56.60;;;;;;5067558;28;20016;-61
2023/04/26 03:05:12;;;;;;;;;;;6.00;56.50;;;;;;5070546;28;20267;-60
2023/04/26 03:07:38;;;;;;;;;;;6.00;56.40;;;;;;5070511;28;19920;-60
2023/04/26 03:10:04;;;;;;;;;;;6.00;56.20;;;;;;5071238;28;19924;-60
2023/04/26 03:12:29;;;;;;;;;;;6.00;56.20;;;;;;5070274;28;19917;-59
2023/04/26 03:14:55;;;;;;;;;;;5.90;56.40;;;;;;5070743;28;19912;-60
2023/04/26 03:17:20;;;;;;;;;;;6.00;56.50;;;;;;5070526;28;19912;-60
2023/04/26 03:19:46;;;;;;;;;;;6.00;56.60;;;;;;5068700;28;19916;-60
2023/04/26 03:22:14;;;;;;;;;;;6.00;56.60;;;;;;5070094;28;20212;-59
2023/04/26 03:24:41;;;;;;;;;;;5.90;56.70;;;;;;5070487;28;19986;-60
2023/04/26 03:27:07;;;;;;;;;;;6.00;56.70;;;;;;5070219;28;19916;-59
2023/04/26 03:29:32;;;;;;;;;;;6.00;57.10;;;;;;5070271;28;19935;-60
2023/04/26 03:31:57;;;;;;;;;;;6.00;57.10;;;;;;5070033;28;20231;-59
2023/04/26 03:34:23;;;;;;;;;;;6.00;57.10;;;;;;5070548;28;19983;-59
2023/04/26 03:36:48;;;;;;;;;;;6.10;57.10;;;;;;5069844;28;19962;-60
2023/04/26 03:39:15;;;;;;;;;;;6.10;57.10;;;;;;5070137;28;19977;-60
2023/04/26 03:41:40;;;;;;;;;;;6.10;57.10;;;;;;5070162;28;19919;-60
2023/04/26 03:44:06;;;;;;;;;;;6.10;57.00;;;;;;5070017;28;20407;-58
2023/04/26 03:46:31;;;;;;;;;;;6.10;56.80;;;;;;5069862;28;20007;-60
2023/04/26 03:48:57;;;;;;;;;;;6.10;56.70;;;;;;5069730;28;19908;-59
2023/04/26 03:51:22;;;;;;;;;;;6.10;56.60;;;;;;5069643;28;19919;-59
2023/04/26 03:53:47;;;;;;;;;;;6.10;56.60;;;;;;5069616;28;20385;-60
2023/04/26 03:56:13;;;;;;;;;;;6.10;56.40;;;;;;5069244;28;19954;-59
2023/04/26 03:58:38;;;;;;;;;;;6.00;56.50;;;;;;5068440;28;19908;-59
2023/04/26 04:01:04;;;;;;;;;;;6.00;56.50;;;;;;5067060;28;19949;-60
2023/04/26 04:03:29;;;;;;;;;;;6.00;56.50;;;;;;5050088;28;19913;-60
2023/04/26 04:05:55;;;;;;;;;;;6.00;57.00;;;;;;5049164;28;19963;-61
2023/04/26 04:08:20;;;;;;;;;;;6.10;57.40;;;;;;5048352;28;19921;-60
2023/04/26 04:10:45;;;;;;;;;;;6.20;57.70;;;;;;5051608;28;19921;-60
2023/04/26 04:13:11;;;;;;;;;;;6.10;57.70;;;;;;5069072;28;19938;-60
2023/04/26 04:15:36;;;;;;;;;;;6.20;57.50;;;;;;5060972;28;19982;-60
2023/04/26 04:18:02;;;;;;;;;;;6.10;57.20;;;;;;5049165;28;19927;-59
2023/04/26 04:20:28;;;;;;;;;;;6.10;57.00;;;;;;5048032;28;19913;-60
2023/04/26 04:22:54;;;;;;;;;;;6.10;57.10;;;;;;5048657;28;20031;-59
2023/04/26 04:25:21;;;;;;;;;;;6.10;57.40;;;;;;5051908;28;19960;-60
2023/04/26 04:27:46;;;;;;;;;;;6.20;57.70;;;;;;5052044;28;19920;-60
2023/04/26 04:30:13;;;;;;;;;;;6.20;58.10;;;;;;5066179;28;19913;-60
2023/04/26 04:32:39;;;;;;;;;;;6.40;58.60;;;;;;5051613;28;20499;-60
2023/04/26 04:35:05;;;;;;;;;;;6.50;59.00;;;;;;5052001;28;20007;-60
2023/04/26 04:37:32;;;;;;;;;;;6.70;59.40;;;;;;5047329;28;19975;-59
2023/04/26 04:39:58;;;;;;;;;;;7.00;59.80;;;;;;5052260;28;19928;-60
2023/04/26 04:42:25;;;;;;;;;;;7.20;59.90;;;;;;5051601;28;19920;-60
2023/04/26 04:44:51;;;;;;;;;;;7.50;60.00;;;;;;5044493;28;19920;-61
2023/04/26 04:47:16;;;;;;;;;;;7.80;60.10;;;;;;5042060;28;19939;-60
2023/04/26 04:49:42;;;;;;;;;;;8.10;60.60;;;;;;5040252;28;19930;-59
2023/04/26 04:52:07;;;;;;;;;;;8.40;61.40;;;;;;5048141;28;19921;-59
2023/04/26 04:54:33;;;;;;;;;;;8.80;62.10;;;;;;5048805;28;19913;-60
2023/04/26 04:57:00;;;;;;;;;;;9.20;62.70;;;;;;5048226;28;20031;-59
2023/04/26 04:59:25;;;;;;;;;;;9.60;63.00;;;;;;5048843;28;20382;-61
2023/04/26 05:01:51;;;;;;;;;;;10.00;63.30;;;;;;5047000;28;19917;-61
2023/04/26 05:04:16;;;;;;;;;;;10.50;63.50;;;;;;5048376;28;20359;-60
2023/04/26 05:06:42;;;;;;;;;;;10.90;63.70;;;;;;5048077;28;19921;-61
2023/04/26 05:09:08;;;;;;;;;;;11.30;63.60;;;;;;5048560;28;19921;-61
2023/04/26 05:11:34;;;;;;;;;;;11.70;63.60;;;;;;5047979;28;19916;-61
2023/04/26 05:13:59;;;;;;;;;;;11.90;61.90;;;;;;5048374;28;19958;-59
2023/04/26 05:16:25;;;;;;;;;;;11.80;60.20;;;;;;5046664;28;19921;-59
2023/04/26 05:18:50;;;;;;;;;;;11.70;58.90;;;;;;5048135;28;19958;-59
2023/04/26 05:21:16;;;;;;;;;;;11.50;57.70;;;;;;5046538;28;20399;-59
2023/04/26 05:23:41;;;;;;;;;;;11.40;57.00;;;;;;5048278;28;19908;-59
2023/04/26 05:26:07;;;;;;;;;;;11.20;57.00;;;;;;5047712;28;19924;-59
2023/04/26 05:28:33;;;;;;;;;;;11.10;57.40;;;;;;5047969;28;19940;-61
2023/04/26 05:30:58;;;;;;;;;;;11.20;60.10;;;;;;5044296;28;19921;-61
2023/04/26 05:33:24;;;;;;;;;;;11.60;63.50;;;;;;5047926;28;19923;-61
2023/04/26 05:35:51;;;;;;;;;;;12.20;65.60;;;;;;5047422;28;19956;-61
2023/04/26 05:38:16;;;;;;;;;;;12.70;65.60;;;;;;5047343;28;19921;-58
2023/04/26 05:40:49;;;;;;;;;;;13.20;65.70;;;;;;5077025;28;19919;-62
2023/04/26 05:43:15;;;;;;;;;;;13.70;65.90;;;;;;5048642;28;20608;-60
2023/04/26 05:45:50;;;;;;;;;;;14.20;65.40;;;;;;5062995;28;20028;-60
2023/04/26 05:48:16;;;;;;;;;;;14.80;66.10;;;;;;5059786;28;19909;-60
2023/04/26 05:50:41;;;;;;;;;;;15.40;66.10;;;;;;5049131;28;19917;-60
2023/04/26 05:53:07;;;;;;;;;;;16.00;66.10;;;;;;5080725;28;19931;-60
2023/04/26 05:55:32;;;;;;;;;;;16.70;65.50;;;;;;5064190;28;19916;-60
2023/04/26 05:57:58;;;;;;;;;;;17.30;64.70;;;;;;5044063;28;20275;-61
2023/04/26 06:00:23;;;;;;;;;;;17.80;64.50;;;;;;5063914;28;19921;-61
2023/04/26 06:02:49;;;;;;;;;;;18.40;64.30;;;;;;5062965;28;19987;-61
2023/04/26 06:05:14;;;;;;;;;;;19.00;64.00;;;;;;5058563;28;19917;-61
2023/04/26 06:07:40;;;;;;;;;;;19.50;63.40;;;;;;5062975;28;19944;-61
2023/04/26 06:10:06;;;;;;;;;;;20.00;63.40;;;;;;5063163;28;19920;-61
2023/04/26 06:12:31;;;;;;;;;;;20.50;63.50;;;;;;5063459;28;19925;-61
2023/04/26 06:14:57;;;;;;;;;;;21.00;63.20;;;;;;5064094;28;19917;-61
2023/04/26 06:17:24;;;;;;;;;;;21.50;63.40;;;;;;5063603;28;19909;-61
2023/04/26 06:19:49;;;;;;;;;;;22.10;63.50;;;;;;5063704;28;20260;-61
2023/04/26 06:22:15;;;;;;;;;;;22.60;62.70;;;;;;5063200;28;19935;-61
2023/04/26 06:24:40;;;;;;;;;;;23.00;61.70;;;;;;5063615;28;19917;-61
2023/04/26 06:27:05;;;;;;;;;;;23.40;61.00;;;;;;5063346;28;19915;-61
2023/04/26 06:29:31;;;;;;;;;;;23.80;60.50;;;;;;5063467;28;19928;-62
2023/04/26 06:31:57;;;;;;;;;;;24.30;60.70;;;;;;5063522;28;19909;-62
2023/04/26 06:34:22;;;;;;;;;;;24.70;59.40;;;;;;5063496;28;20003;-61
2023/04/26 06:36:47;;;;;;;;;;;25.00;58.30;;;;;;5063522;28;19909;-61
2023/04/26 06:39:13;;;;;;;;;;;25.40;57.10;;;;;;5063097;28;20478;-61
2023/04/26 06:41:38;;;;;;;;;;;25.70;56.10;;;;;;5062968;28;20344;-61
2023/04/26 06:44:04;;;;;;;;;;;26.00;54.40;;;;;;5062974;28;19917;-60
2023/04/26 06:46:29;;;;;;;;;;;26.30;52.00;;;;;;5062872;28;19909;-61
2023/04/26 06:48:55;;;;;;;;;;;26.60;49.40;;;;;;5063035;28;20007;-60
2023/04/26 06:51:20;;;;;;;;;;;26.80;47.50;;;;;;5054276;28;20130;-60
2023/04/26 06:53:47;;;;;;;;;;;27.20;47.80;;;;;;5049605;28;19921;-60
2023/04/26 06:56:12;;;;;;;;;;;27.50;45.10;;;;;;5049434;28;19986;-61
2023/04/26 06:58:37;;;;;;;;;;;27.80;44.20;;;;;;5049484;28;19925;-61
2023/04/26 07:01:05;;;;;;;;;;;28.00;42.90;;;;;;5049733;28;19920;-61
2023/04/26 07:03:31;;;;;;;;;;;28.30;41.90;;;;;;5049393;28;19913;-61
2023/04/26 07:05:56;;;;;;;;;;;28.50;41.30;;;;;;5049704;28;19916;-61
2023/04/26 07:08:22;;;;;;;;;;;28.80;39.90;;;;;;5049436;28;19909;-61
2023/04/26 07:10:47;;;;;;;;;;;29.00;40.10;;;;;;5049456;28;20000;-60
2023/04/26 07:13:12;;;;;;;;;;;29.30;39.50;;;;;;5031291;28;20031;-61
2023/04/26 07:15:38;;;;;;;;;;;29.60;38.60;;;;;;5049604;28;20043;-62
2023/04/26 07:18:03;;;;;;;;;;;29.90;38.60;;;;;;5049628;28;19920;-61
2023/04/26 07:20:29;;;;;;;;;;;30.10;37.40;;;;;;5049323;28;20285;-61
2023/04/26 07:22:54;;;;;;;;;;;30.40;36.50;;;;;;5049113;28;20435;-60
2023/04/26 07:25:20;;;;;;;;;;;30.60;35.40;;;;;;5049409;28;19917;-61
2023/04/26 07:27:45;;;;;;;;;;;31.00;35.20;;;;;;5049177;28;19919;-60
2023/04/26 07:30:11;;;;;;;;;;;31.20;31.90;;;;;;5049233;28;20007;-61
2023/04/26 07:32:36;;;;;;;;;;;31.30;32.30;;;;;;5038307;28;19913;-61
2023/04/26 07:35:04;;;;;;;;;;;31.50;32.00;;;;;;5027828;28;19921;-61
2023/04/26 07:37:30;;;;;;;;;;;31.80;30.60;;;;;;5035482;28;19913;-61
2023/04/26 07:39:55;;;;;;;;;;;32.00;29.90;;;;;;5049951;28;19920;-61
2023/04/26 07:42:21;;;;;;;;;;;32.20;29.20;;;;;;5039812;28;19917;-61
2023/04/26 07:44:47;;;;;;;;;;;32.30;27.80;;;;;;5047641;28;19920;-61
2023/04/26 07:47:13;;;;;;;;;;;32.50;27.90;;;;;;5045918;28;20015;-61
2023/04/26 07:49:38;;;;;;;;;;;32.50;26.60;;;;;;5045445;28;19928;-61
2023/04/26 07:52:04;;;;;;;;;;;32.50;26.90;;;;;;5048820;28;19913;-61
2023/04/26 07:54:29;;;;;;;;;;;32.50;26.50;;;;;;5040510;28;19917;-61
2023/04/26 07:56:55;;;;;;;;;;;32.60;26.80;;;;;;5047519;28;19941;-61
2023/04/26 07:59:20;;;;;;;;;;;32.80;26.30;;;;;;5046969;28;19921;-61
2023/04/26 08:01:46;;;;;;;;;;;32.90;26.00;;;;;;5046393;28;19917;-61
2023/04/26 08:04:11;;;;;;;;;;;33.00;24.50;;;;;;5047724;28;19921;-61
2023/04/26 08:06:38;;;;;;;;;;;32.90;24.60;;;;;;5046354;28;19913;-61
2023/04/26 08:09:04;;;;;;;;;;;32.80;24.10;;;;;;5047193;28;20364;-61
2023/04/26 08:11:29;;;;;;;;;;;32.70;23.60;;;;;;5029775;28;19919;-61
2023/04/26 08:13:54;;;;;;;;;;;32.50;24.50;;;;;;5047251;28;20348;-61
2023/04/26 08:16:20;;;;;;;;;;;32.70;24.70;;;;;;5048162;28;19909;-61
2023/04/26 08:18:46;;;;;;;;;;;32.80;23.60;;;;;;5045417;28;20361;-61
2023/04/26 08:21:12;;;;;;;;;;;32.80;23.40;;;;;;5066272;28;20256;-61
2023/04/26 08:23:37;;;;;;;;;;;32.70;23.20;;;;;;5061223;28;21129;-61
2023/04/26 08:26:03;;;;;;;;;;;32.40;22.70;;;;;;5047998;28;19917;-61
2023/04/26 08:28:28;;;;;;;;;;;32.30;22.20;;;;;;5045716;28;20409;-61
2023/04/26 08:30:54;;;;;;;;;;;32.30;22.10;;;;;;5047743;28;20217;-61
2023/04/26 08:33:19;;;;;;;;;;;32.30;22.20;;;;;;5047097;28;19913;-62
2023/04/26 08:35:45;;;;;;;;;;;32.30;21.70;;;;;;5048094;28;19985;-61
2023/04/26 08:38:10;;;;;;;;;;;32.30;21.70;;;;;;5043934;28;20082;-61
2023/04/26 08:40:36;;;;;;;;;;;32.50;22.50;;;;;;5027291;28;19932;-61
2023/04/26 08:43:01;;;;;;;;;;;32.80;21.60;;;;;;5028883;28;19917;-60
2023/04/26 08:45:27;;;;;;;;;;;32.80;21.40;;;;;;5036473;28;19924;-61
2023/04/26 08:47:55;;;;;;;;;;;32.50;19.90;;;;;;5028725;28;19913;-60
2023/04/26 08:50:22;;;;;;;;;;;31.90;19.20;;;;;;5047811;28;20367;-62
2023/04/26 08:52:49;;;;;;;;;;;31.20;19.30;;;;;;5046383;28;19940;-61
2023/04/26 08:55:18;;;;;;;;;;;30.60;19.70;;;;;;5047650;28;20265;-62
2023/04/26 08:57:47;;;;;;;;;;;30.00;19.50;;;;;;5046684;28;20824;-61
2023/04/26 09:00:14;;;;;;;;;;;29.40;20.30;;;;;;5047610;28;20122;-61
2023/04/26 09:02:41;;;;;;;;;;;29.00;20.60;;;;;;5046578;28;20375;-61
2023/04/26 09:05:08;;;;;;;;;;;28.60;21.10;;;;;;5047179;28;19917;-62
2023/04/26 09:07:41;;;;;;;;;;;28.30;21.90;;;;;;5046637;28;19987;-61
2023/04/26 09:10:06;;;;;;;;;;;27.90;22.00;;;;;;5046601;28;20008;-61
2023/04/26 09:12:33;;;;;;;;;;;27.50;22.20;;;;;;5047046;28;20467;-61
2023/04/26 09:15:00;;;;;;;;;;;27.20;22.50;;;;;;5046565;28;19917;-61
2023/04/26 09:17:25;;;;;;;;;;;26.80;22.60;;;;;;5047226;28;20389;-61
2023/04/26 09:19:51;;;;;;;;;;;26.40;22.60;;;;;;5044932;28;20253;-61
2023/04/26 09:22:33;;;;;;;;;;;26.00;22.60;;;;;;5046937;28;19909;-61
2023/04/26 09:24:59;;;;;;;;;;;25.70;23.30;;;;;;5045162;28;20007;-61
2023/04/26 09:27:31;;;;;;;;;;;25.50;23.00;;;;;;5047376;28;20050;-60
2023/04/26 09:30:08;;;;;;;;;;;25.20;21.60;;;;;;5046865;28;19920;-62
2023/04/26 09:32:46;;;;;;;;;;;25.40;22.90;;;;;;5046907;28;19999;-60
2023/04/26 09:35:20;;;;;;;;;;;26.10;23.10;;;;;;5046161;28;20023;-62
2023/04/26 09:37:50;;;;;;;;;;;26.60;21.50;;;;;;5046882;28;20027;-62
2023/04/26 09:40:20;;;;;;;;;;;26.70;21.40;;;;;;5045808;28;19990;-61
2023/04/26 09:42:45;;;;;;;;;;;26.50;20.90;;;;;;5046920;28;19913;-61
2023/04/26 09:45:11;;;;;;;;;;;26.20;21.40;;;;;;5045537;28;19932;-62
2023/04/26 09:47:37;;;;;;;;;;;25.90;21.80;;;;;;5046913;28;19909;-60
2023/04/26 09:50:02;;;;;;;;;;;25.70;21.70;;;;;;5045832;28;19924;-61
2023/04/26 09:52:28;;;;;;;;;;;25.50;21.70;;;;;;5046614;28;19909;-61
2023/04/26 09:54:54;;;;;;;;;;;25.20;21.80;;;;;;5046719;28;19927;-61
2023/04/26 09:57:23;;;;;;;;;;;25.00;22.10;;;;;;5045806;28;19924;-61
2023/04/26 09:59:50;;;;;;;;;;;24.70;22.40;;;;;;5046884;28;19947;-61
2023/04/26 10:02:22;;;;;;;;;;;24.40;22.60;;;;;;5045885;28;19916;-61
2023/04/26 10:04:48;;;;;;;;;;;24.20;22.90;;;;;;5047277;28;19917;-61
2023/04/26 10:07:15;;;;;;;;;;;23.80;22.90;;;;;;5044348;28;20287;-60
2023/04/26 10:09:40;;;;;;;;;;;23.40;23.10;;;;;;5046743;28;19917;-61
2023/04/26 10:12:08;;;;;;;;;;;23.10;23.40;;;;;;5044991;28;19913;-61
2023/04/26 10:14:33;;;;;;;;;;;22.80;23.80;;;;;;5046146;28;19924;-61
2023/04/26 10:16:59;;;;;;;;;;;22.70;24.10;;;;;;5045793;28;19917;-61
2023/04/26 10:19:25;;;;;;;;;;;22.50;24.40;;;;;;5046198;28;19925;-60
2023/04/26 10:21:52;;;;;;;;;;;22.40;24.60;;;;;;5045672;28;19919;-60
2023/04/26 10:24:17;;;;;;;;;;;22.30;24.60;;;;;;5045996;28;19928;-61
2023/04/26 10:26:53;;;;;;;;;;;22.20;25.00;;;;;;5047797;28;19917;-60
2023/04/26 10:29:19;;;;;;;;;;;22.10;25.40;;;;;;5050171;28;19948;-60
2023/04/26 10:32:04;;;;;;;;;;;22.10;25.60;;;;;;5049084;28;20295;-61
2023/04/26 10:34:30;;;;;;;;;;;22.10;25.70;;;;;;5050340;28;19947;-61
2023/04/26 10:37:08;;;;;;;;;;;22.00;25.80;;;;;;5049277;28;19913;-62
2023/04/26 10:39:35;;;;;;;;;;;22.00;25.80;;;;;;5049737;28;19927;-60
2023/04/26 10:42:23;;;;;;;;;;;21.80;25.70;;;;;;5049208;28;19920;-60
2023/04/26 10:44:49;;;;;;;;;;;21.80;25.60;;;;;;5047951;28;19979;-61
2023/04/26 10:47:21;;;;;;;;;;;21.70;25.80;;;;;;5048812;28;20433;-61
2023/04/26 10:49:47;;;;;;;;;;;21.70;25.90;;;;;;5064763;28;20023;-60
2023/04/26 10:52:15;;;;;;;;;;;21.70;26.00;;;;;;5069942;28;19991;-61
2023/04/26 10:54:44;;;;;;;;;;;21.80;25.80;;;;;;5048902;28;19924;-61
2023/04/26 10:57:09;;;;;;;;;;;22.00;26.00;;;;;;5057524;28;19916;-61
2023/04/26 10:59:35;;;;;;;;;;;22.70;26.10;;;;;;5049217;28;20372;-61
2023/04/26 11:02:00;;;;;;;;;;;23.50;25.80;;;;;;5049137;28;19921;-61
2023/04/26 11:04:46;;;;;;;;;;;24.00;25.20;;;;;;5049455;28;19986;-61
2023/04/26 11:07:12;;;;;;;;;;;24.30;24.80;;;;;;5049479;28;20394;-61
2023/04/26 11:09:39;;;;;;;;;;;24.30;24.80;;;;;;5014571;28;19921;-59
2023/04/26 11:12:05;;;;;;;;;;;24.30;24.40;;;;;;5029302;28;20009;-59
2023/04/26 11:14:34;;;;;;;;;;;24.20;24.40;;;;;;5029712;28;20443;-60
2023/04/26 11:17:03;;;;;;;;;;;24.10;24.40;;;;;;5029273;28;20008;-59
2023/04/26 11:19:29;;;;;;;;;;;23.80;24.40;;;;;;5029337;28;19921;-61
2023/04/26 11:21:54;;;;;;;;;;;23.60;24.30;;;;;;5029129;28;19909;-61
2023/04/26 11:24:30;;;;;;;;;;;23.30;24.20;;;;;;5048938;28;19952;-61
2023/04/26 11:26:56;;;;;;;;;;;23.10;24.40;;;;;;5048778;28;19915;-61
2023/04/26 11:29:22;;;;;;;;;;;22.80;24.70;;;;;;5045928;28;20129;-61
2023/04/26 11:31:54;;;;;;;;;;;22.70;24.70;;;;;;5048851;28;20375;-62
2023/04/26 11:34:36;;;;;;;;;;;22.40;24.80;;;;;;5048539;28;19974;-61
2023/04/26 11:37:03;;;;;;;;;;;22.30;24.80;;;;;;5048643;28;19912;-61
2023/04/26 11:39:32;;;;;;;;;;;22.20;25.20;;;;;;5047923;28;19921;-61
2023/04/26 11:42:07;;;;;;;;;;;22.20;25.40;;;;;;5048693;28;19970;-61
2023/04/26 11:44:33;;;;;;;;;;;22.20;25.40;;;;;;5048312;28;20011;-61
2023/04/26 11:47:05;;;;;;;;;;;22.30;25.60;;;;;;5048562;28;20007;-60
2023/04/26 11:49:30;;;;;;;;;;;22.60;25.60;;;;;;5046104;28;20454;-61
2023/04/26 11:51:56;;;;;;;;;;;22.90;25.60;;;;;;5048590;28;20123;-61
2023/04/26 11:54:31;;;;;;;;;;;23.40;25.20;;;;;;5047776;28;19955;-62
2023/04/26 11:56:57;;;;;;;;;;;23.80;25.20;;;;;;5048469;28;19916;-61
2023/04/26 11:59:23;;;;;;;;;;;24.10;25.10;;;;;;5046598;28;19924;-61
2023/04/26 12:01:49;;;;;;;;;;;24.30;24.50;;;;;;5048952;28;20427;-60
2023/04/26 12:04:14;;;;;;;;;;;24.30;24.10;;;;;;5047550;28;19917;-60
2023/04/26 12:06:41;;;;;;;;;;;24.20;24.40;;;;;;5047642;28;19916;-60
2023/04/26 12:09:12;;;;;;;;;;;24.00;24.00;;;;;;5048241;28;19917;-60
2023/04/26 12:11:38;;;;;;;;;;;23.70;24.10;;;;;;5047844;28;19921;-60
2023/04/26 12:14:04;;;;;;;;;;;23.30;24.40;;;;;;5030080;28;20329;-61
2023/04/26 12:16:30;;;;;;;;;;;23.00;24.60;;;;;;5046239;28;19909;-61
2023/04/26 12:18:56;;;;;;;;;;;22.70;24.90;;;;;;5047819;28;19974;-60
2023/04/26 12:21:21;;;;;;;;;;;22.50;24.80;;;;;;5047130;28;19912;-61
2023/04/26 12:23:47;;;;;;;;;;;22.30;25.00;;;;;;5048035;28;20326;-61
2023/04/26 12:26:13;;;;;;;;;;;22.20;25.20;;;;;;5045879;28;20417;-61
2023/04/26 12:28:38;;;;;;;;;;;22.30;25.50;;;;;;5047753;28;20272;-61
2023/04/26 12:31:05;;;;;;;;;;;22.30;25.40;;;;;;5047324;28;19913;-60
2023/04/26 12:33:31;;;;;;;;;;;22.50;25.30;;;;;;5046149;28;19938;-61
2023/04/26 12:35:59;;;;;;;;;;;22.70;25.30;;;;;;5045781;28;20368;-61
2023/04/26 12:38:24;;;;;;;;;;;22.90;25.10;;;;;;5047801;28;19908;-61
2023/04/26 12:40:50;;;;;;;;;;;23.10;24.20;;;;;;5047158;28;20288;-61
2023/04/26 12:43:15;;;;;;;;;;;23.20;23.90;;;;;;5047608;28;19909;-60
2023/04/26 12:45:41;;;;;;;;;;;23.30;24.00;;;;;;5045687;28;20280;-61
2023/04/26 12:48:06;;;;;;;;;;;23.40;23.70;;;;;;5047265;28;20257;-61
2023/04/26 12:50:32;;;;;;;;;;;23.50;23.90;;;;;;5046272;28;19921;-60
2023/04/26 12:52:57;;;;;;;;;;;23.60;23.80;;;;;;5047558;28;19912;-61
2023/04/26 12:55:23;;;;;;;;;;;23.50;23.80;;;;;;5045627;28;20287;-60
2023/04/26 12:57:49;;;;;;;;;;;23.40;23.20;;;;;;5029250;28;19913;-60
2023/04/26 13:00:20;;;;;;;;;;;23.30;23.50;;;;;;5046754;28;20148;-60
2023/04/26 13:02:45;;;;;;;;;;;23.20;23.70;;;;;;5046573;28;20446;-60
2023/04/26 13:05:11;;;;;;;;;;;23.10;23.80;;;;;;5047460;28;19921;-61
2023/04/26 13:07:38;;;;;;;;;;;23.00;24.10;;;;;;5046601;28;20019;-61
2023/04/26 13:10:04;;;;;;;;;;;23.00;24.20;;;;;;5047569;28;19921;-62
2023/04/26 13:12:30;;;;;;;;;;;22.90;24.30;;;;;;5046601;28;19935;-61
2023/04/26 13:14:55;;;;;;;;;;;22.80;24.30;;;;;;5044900;28;19971;-61
2023/04/26 13:17:22;;;;;;;;;;;22.80;24.50;;;;;;5042814;28;20305;-62
2023/04/26 13:19:47;;;;;;;;;;;22.80;24.40;;;;;;5046956;28;19928;-62
2023/04/26 13:22:13;;;;;;;;;;;22.80;24.30;;;;;;5046653;28;20372;-60
2023/04/26 13:24:39;;;;;;;;;;;22.80;24.30;;;;;;5045857;28;20012;-61
2023/04/26 13:27:04;;;;;;;;;;;22.80;24.30;;;;;;5047275;28;19924;-61
2023/04/26 13:29:34;;;;;;;;;;;22.90;24.30;;;;;;5045864;28;19924;-60
2023/04/26 13:31:59;;;;;;;;;;;23.00;24.30;;;;;;5046509;28;20129;-60
2023/04/26 13:34:25;;;;;;;;;;;23.10;24.40;;;;;;5046155;28;20304;-61
2023/04/26 13:36:51;;;;;;;;;;;23.10;24.10;;;;;;5044506;28;20379;-61
2023/04/26 13:39:16;;;;;;;;;;;23.20;24.10;;;;;;5045748;28;20295;-61
2023/04/26 13:41:42;;;;;;;;;;;23.30;23.70;;;;;;5046807;28;19944;-60
2023/04/26 13:44:07;;;;;;;;;;;23.80;23.70;;;;;;5046595;28;19920;-61
2023/04/26 13:46:33;;;;;;;;;;;24.10;23.60;;;;;;5045898;28;19917;-62
2023/04/26 13:48:58;;;;;;;;;;;24.40;23.50;;;;;;5027570;28;19956;-61
2023/04/26 13:51:24;;;;;;;;;;;25.00;23.10;;;;;;5044620;28;19913;-61
2023/04/26 13:53:50;;;;;;;;;;;25.30;22.70;;;;;;5046456;28;19913;-61
2023/04/26 13:56:16;;;;;;;;;;;25.30;22.20;;;;;;5046557;28;20388;-61
2023/04/26 13:58:42;;;;;;;;;;;25.10;22.10;;;;;;5046286;28;19928;-61
2023/04/26 14:01:07;;;;;;;;;;;24.80;21.90;;;;;;5045773;28;19913;-61
2023/04/26 14:03:33;;;;;;;;;;;24.60;21.30;;;;;;5032905;28;19912;-61
2023/04/26 14:05:59;;;;;;;;;;;24.40;21.70;;;;;;5049833;28;20442;-62
2023/04/26 14:08:24;;;;;;;;;;;24.20;21.90;;;;;;5048655;28;20495;-61
2023/04/26 14:10:50;;;;;;;;;;;24.00;22.20;;;;;;5050492;28;19919;-61
2023/04/26 14:13:15;;;;;;;;;;;23.90;22.50;;;;;;5049548;28;19912;-60
2023/04/26 14:15:41;;;;;;;;;;;23.80;22.40;;;;;;5050632;28;20414;-61